This is the latest recevied weather packets stored in our database for station/object KC4JES. If no packets are shown the sender has not sent any weather packets the latest 10 day(s).
| Time | Temp. | Humidity | Pressure | Rain* | Wind** | Luminosity | Snow |
|---|---|---|---|---|---|---|---|
| 1777724161 | 21.11° C | 95% | 1010.6 hPa | 0 mm | - | 53 W/m² | - |
| 1777723859 | 20.56° C | 96% | 1010.7 hPa | 0 mm | - | 49 W/m² | - |
| 1777723554 | 20.56° C | 96% | 1010.5 hPa | 0 mm | - | 39 W/m² | - |
| 1777723252 | 20.56° C | 96% | 1010.5 hPa | 0 mm | - | 30 W/m² | - |
| 1777722950 | 20.56° C | 96% | 1010.4 hPa | 0 mm | - | 32 W/m² | - |
| 1777722645 | 20.56° C | 96% | 1010.6 hPa | 0 mm | - | 23 W/m² | - |
| 1777722342 | 20.56° C | 97% | 1010.4 hPa | 0 mm | - | 24 W/m² | - |
| 1777722039 | 20.56° C | 97% | 1010.5 hPa | 0 mm | - | 21 W/m² | - |
| 1777721737 | 20.56° C | 97% | 1010.5 hPa | 0 mm | - | 14 W/m² | - |
| 1777721435 | 20.56° C | 97% | 1010.6 hPa | 0 mm | - | 11 W/m² | - |
| 1777721132 | 20° C | 97% | 1010.2 hPa | 0 mm | - | 16 W/m² | - |
| 1777720830 | 20° C | 97% | 1010.4 hPa | 0 mm | - | 10 W/m² | - |
| 1777720527 | 20° C | 97% | 1010.2 hPa | 0 mm | - | 17 W/m² | - |
| 1777720224 | 20° C | 97% | 1010.3 hPa | 0 mm | - | 8 W/m² | - |
| 1777719922 | 20° C | 97% | 1010.1 hPa | 0 mm | - | 9 W/m² | - |
| 1777719619 | 20° C | 97% | 1010.1 hPa | 0 mm | - | 5 W/m² | - |
| 1777719316 | 19.44° C | 97% | 1010.2 hPa | 0 mm | - | 3 W/m² | - |
| 1777719014 | 19.44° C | 97% | 1009.7 hPa | 0 mm | - | 3 W/m² | - |
| 1777718711 | 19.44° C | 97% | 1009.4 hPa | 0 mm | - | 2 W/m² | - |
| 1777718409 | 19.44° C | 97% | 1009.6 hPa | 0 mm | - | 1 W/m² | - |
| 1777718106 | 19.44° C | 97% | 1009.4 hPa | 0 mm | - | 0 W/m² | - |
| 1777717803 | 19.44° C | 96% | 1009.5 hPa | 0 mm | - | 0 W/m² | - |
| 1777717500 | 19.44° C | 96% | 1009.2 hPa | 0 mm | - | 0 W/m² | - |
| 1777717196 | 19.44° C | 96% | 1009.2 hPa | 0 mm | - | 0 W/m² | - |
| 1777716895 | 19.44° C | 96% | 1009 hPa | 0 mm | - | 0 W/m² | - |
* Rain latest hour (hover to see other rain measurements)
** Current wind speed in m/s (hover to see current wind gust speed)